createdAt,value
2023-07-08T00:02:13.814Z,41.27
2023-07-08T00:04:40.402Z,41.27
2023-07-08T00:07:11.061Z,41.29
2023-07-08T00:09:37.406Z,41.43
2023-07-08T00:12:08.973Z,41.20
2023-07-08T00:14:35.116Z,41.41
2023-07-08T00:17:01.498Z,41.55
2023-07-08T00:19:27.772Z,41.46
2023-07-08T00:21:53.924Z,41.51
2023-07-08T00:24:20.304Z,41.49
2023-07-08T00:26:46.663Z,41.63
2023-07-08T00:29:13.596Z,41.49
2023-07-08T00:31:39.819Z,41.50
2023-07-08T00:34:06.011Z,41.67
2023-07-08T00:36:32.929Z,41.75
2023-07-08T00:38:59.137Z,41.72
2023-07-08T00:41:31.309Z,41.77
2023-07-08T00:43:58.197Z,41.73
2023-07-08T00:46:27.441Z,41.75
2023-07-08T00:48:58.364Z,41.95
2023-07-08T00:51:24.550Z,42.06
2023-07-08T00:53:50.816Z,41.97
2023-07-08T00:56:20.376Z,42.11
2023-07-08T00:58:51.022Z,41.94
2023-07-08T01:01:17.913Z,42.04
2023-07-08T01:03:49.633Z,41.86
2023-07-08T01:06:16.968Z,41.83
2023-07-08T01:08:43.220Z,41.94
2023-07-08T01:11:11.760Z,42.13
2023-07-08T01:13:40.869Z,42.13
2023-07-08T01:16:07.594Z,42.11
2023-07-08T01:18:34.792Z,41.99
2023-07-08T01:21:02.189Z,42.16
2023-07-08T01:23:28.614Z,42.26
2023-07-08T01:25:54.820Z,42.20
2023-07-08T01:28:21.348Z,42.29
2023-07-08T01:30:49.147Z,42.30
2023-07-08T01:33:22.347Z,42.11
2023-07-08T01:35:51.976Z,42.27
2023-07-08T01:38:22.269Z,42.45
2023-07-08T01:40:49.526Z,42.32
2023-07-08T01:43:15.767Z,42.39
2023-07-08T01:45:42.525Z,42.44
2023-07-08T01:48:13.016Z,42.50
2023-07-08T01:50:42.678Z,42.39
2023-07-08T01:53:14.762Z,42.31
2023-07-08T01:55:41.101Z,42.40
2023-07-08T01:58:07.329Z,42.45
2023-07-08T02:00:33.582Z,42.56
2023-07-08T02:02:59.839Z,42.59
2023-07-08T02:05:26.080Z,42.52
2023-07-08T02:07:52.239Z,42.69
2023-07-08T02:10:18.423Z,42.72
2023-07-08T02:12:44.576Z,42.79
2023-07-08T02:15:10.947Z,42.69
2023-07-08T02:17:37.438Z,42.73
2023-07-08T02:20:04.099Z,42.87
2023-07-08T02:22:30.332Z,42.86
2023-07-08T02:24:57.433Z,42.89
2023-07-08T02:27:24.278Z,42.91
2023-07-08T02:29:50.515Z,42.92
2023-07-08T02:32:17.448Z,43.00
2023-07-08T02:34:43.701Z,43.01
2023-07-08T02:37:09.872Z,43.01
2023-07-08T02:39:36.088Z,42.95
2023-07-08T02:42:02.308Z,43.10
2023-07-08T02:44:28.497Z,43.22
2023-07-08T02:46:54.677Z,43.12
2023-07-08T02:49:20.979Z,43.16
2023-07-08T02:51:47.304Z,43.34
2023-07-08T02:54:14.122Z,43.17
2023-07-08T02:56:40.308Z,43.11
2023-07-08T02:59:06.966Z,43.01
2023-07-08T03:01:41.738Z,43.19
2023-07-08T03:04:13.385Z,43.18
2023-07-08T03:06:43.526Z,43.31
2023-07-08T03:09:10.805Z,43.30
2023-07-08T03:11:36.913Z,43.24
2023-07-08T03:14:03.381Z,43.23
2023-07-08T03:16:29.609Z,43.28
2023-07-08T03:18:55.798Z,43.38
2023-07-08T03:21:21.993Z,43.21
2023-07-08T03:23:48.894Z,43.36
2023-07-08T03:26:16.253Z,43.54
2023-07-08T03:28:43.205Z,43.44
2023-07-08T03:31:10.686Z,43.42
2023-07-08T03:33:37.485Z,43.42
2023-07-08T03:36:05.097Z,43.63
2023-07-08T03:38:31.343Z,43.58
2023-07-08T03:40:57.534Z,43.58
2023-07-08T03:43:24.106Z,43.53
2023-07-08T03:45:50.363Z,43.60
2023-07-08T03:48:16.711Z,43.61
2023-07-08T03:50:43.207Z,43.78
2023-07-08T03:53:09.619Z,43.63
2023-07-08T03:55:35.999Z,43.63
2023-07-08T03:58:02.711Z,43.76
2023-07-08T04:00:30.044Z,43.93
2023-07-08T04:02:57.550Z,43.85
2023-07-08T04:05:24.128Z,43.93
2023-07-08T04:07:50.602Z,43.85
2023-07-08T04:10:19.722Z,43.83
2023-07-08T04:12:45.968Z,43.77
2023-07-08T04:15:12.791Z,43.99
2023-07-08T04:17:42.196Z,43.97
2023-07-08T04:20:11.318Z,44.08
2023-07-08T04:22:37.986Z,44.03
2023-07-08T04:25:04.620Z,43.94
2023-07-08T04:27:30.876Z,44.10
2023-07-08T04:29:57.142Z,44.14
2023-07-08T04:32:25.462Z,43.99
2023-07-08T04:34:52.661Z,44.09
2023-07-08T04:37:19.817Z,44.14
2023-07-08T04:39:46.417Z,44.17
2023-07-08T04:42:15.931Z,44.26
2023-07-08T04:44:42.841Z,44.21
2023-07-08T04:47:09.524Z,44.17
2023-07-08T04:49:36.104Z,44.15
2023-07-08T04:52:02.954Z,44.25
2023-07-08T04:54:29.495Z,44.21
2023-07-08T04:56:55.980Z,44.42
2023-07-08T04:59:23.404Z,44.32
2023-07-08T05:01:50.351Z,44.33
2023-07-08T05:04:17.787Z,44.32
2023-07-08T05:06:44.059Z,44.40
2023-07-08T05:09:10.588Z,44.38
2023-07-08T05:11:36.982Z,44.29
2023-07-08T05:14:04.042Z,44.42
2023-07-08T05:16:30.633Z,44.41
2023-07-08T05:18:56.833Z,44.34
2023-07-08T05:21:23.027Z,44.50
2023-07-08T05:23:49.852Z,44.44
2023-07-08T05:26:16.346Z,44.43
2023-07-08T05:28:42.729Z,44.22
2023-07-08T05:31:08.986Z,44.41
2023-07-08T05:33:35.613Z,44.44
2023-07-08T05:36:01.825Z,44.36
2023-07-08T05:38:28.076Z,44.39
2023-07-08T05:40:55.227Z,44.42
2023-07-08T05:43:21.766Z,44.39
2023-07-08T05:45:57.979Z,44.52
2023-07-08T05:48:31.982Z,44.36
2023-07-08T05:50:58.406Z,44.38
2023-07-08T05:53:24.832Z,44.28
2023-07-08T05:55:51.384Z,44.30
2023-07-08T05:58:25.641Z,44.18
2023-07-08T06:00:57.685Z,44.24
2023-07-08T06:03:24.375Z,44.22
2023-07-08T06:05:50.886Z,44.13
2023-07-08T06:08:17.096Z,44.17
2023-07-08T06:10:46.519Z,43.94
2023-07-08T06:13:12.985Z,44.10
2023-07-08T06:15:45.830Z,44.10
2023-07-08T06:18:12.046Z,44.00
2023-07-08T06:20:38.196Z,44.05
2023-07-08T06:23:04.338Z,43.95
2023-07-08T06:25:30.806Z,43.98
2023-07-08T06:27:57.123Z,43.87
2023-07-08T06:30:23.369Z,43.92
2023-07-08T06:32:49.741Z,43.94
2023-07-08T06:35:16.184Z,43.86
2023-07-08T06:37:42.380Z,43.92
2023-07-08T06:40:08.663Z,43.89
2023-07-08T06:42:34.844Z,43.94
2023-07-08T06:45:10.507Z,43.84
2023-07-08T06:47:36.893Z,43.60
2023-07-08T06:50:03.148Z,43.60
2023-07-08T06:52:34.677Z,43.57
2023-07-08T06:55:03.366Z,43.74
2023-07-08T06:57:31.304Z,43.66
2023-07-08T06:59:57.508Z,43.52
2023-07-08T07:02:23.787Z,43.60
2023-07-08T07:04:49.941Z,43.76
2023-07-08T07:07:16.398Z,43.40
2023-07-08T07:09:42.685Z,43.37
2023-07-08T07:12:09.005Z,43.34
2023-07-08T07:17:08.936Z,43.20
2023-07-08T07:19:35.786Z,42.86
2023-07-08T07:22:02.125Z,42.90
2023-07-08T07:24:28.327Z,42.62
2023-07-08T07:26:54.440Z,42.54
2023-07-08T07:29:22.544Z,42.62
2023-07-08T07:31:49.079Z,42.47
2023-07-08T07:34:15.390Z,42.50
2023-07-08T07:36:41.634Z,42.46
2023-07-08T07:39:07.773Z,42.23
2023-07-08T07:41:33.913Z,42.12
2023-07-08T07:44:00.196Z,42.09
2023-07-08T07:46:26.644Z,42.25
2023-07-08T07:48:53.075Z,42.08
2023-07-08T07:51:19.222Z,41.85
2023-07-08T07:53:45.365Z,41.95
2023-07-08T07:56:11.662Z,41.83
2023-07-08T07:58:37.876Z,41.68
2023-07-08T08:01:04.292Z,41.68
2023-07-08T08:03:30.853Z,41.46
2023-07-08T08:05:57.050Z,41.37
2023-07-08T08:08:23.354Z,41.43
2023-07-08T08:10:49.929Z,41.20
2023-07-08T08:13:20.825Z,41.24
2023-07-08T08:15:47.174Z,41.06
2023-07-08T08:18:13.479Z,41.29
2023-07-08T08:20:41.624Z,41.01
2023-07-08T08:23:07.759Z,40.75
2023-07-08T08:25:33.999Z,40.44
2023-07-08T08:28:00.188Z,40.68
2023-07-08T08:30:26.414Z,40.54
2023-07-08T08:32:52.723Z,40.43
2023-07-08T08:35:19.006Z,40.40
2023-07-08T08:37:45.174Z,40.20
2023-07-08T08:40:19.131Z,40.28
2023-07-08T08:42:52.398Z,40.16
2023-07-08T08:45:21.196Z,40.06
2023-07-08T08:47:50.170Z,39.96
2023-07-08T08:50:34.411Z,39.70
2023-07-08T08:53:02.873Z,39.86
2023-07-08T08:55:29.656Z,39.62
2023-07-08T08:58:14.584Z,39.62
2023-07-08T09:00:55.271Z,39.18
2023-07-08T09:03:37.624Z,39.17
2023-07-08T09:06:11.542Z,39.01
2023-07-08T09:08:37.690Z,39.03
2023-07-08T09:11:03.822Z,39.22
2023-07-08T09:13:35.050Z,39.12
2023-07-08T09:16:04.313Z,39.06
2023-07-08T09:18:35.971Z,38.86
2023-07-08T09:21:05.936Z,38.98
2023-07-08T09:23:33.700Z,38.66
2023-07-08T09:26:03.683Z,38.70
2023-07-08T09:28:38.833Z,38.36
2023-07-08T09:31:06.726Z,38.16
2023-07-08T09:33:34.428Z,38.46
2023-07-08T09:36:01.434Z,38.49
2023-07-08T09:38:27.784Z,38.03
2023-07-08T09:40:55.462Z,37.85
2023-07-08T09:43:21.632Z,38.11
2023-07-08T09:45:48.989Z,38.11
2023-07-08T09:48:24.567Z,37.96
2023-07-08T09:50:52.509Z,37.96
2023-07-08T09:53:19.138Z,38.01
2023-07-08T09:55:46.288Z,37.91
2023-07-08T09:58:15.572Z,37.89
2023-07-08T10:00:42.405Z,37.71
2023-07-08T10:03:20.712Z,37.36
2023-07-08T10:05:48.358Z,37.17
2023-07-08T10:08:19.407Z,37.04
2023-07-08T10:10:47.019Z,37.03
2023-07-08T10:13:36.611Z,36.97
2023-07-08T10:16:21.645Z,37.04
2023-07-08T10:18:48.178Z,36.65
2023-07-08T10:21:29.870Z,36.65
2023-07-08T10:24:14.731Z,36.31
2023-07-08T10:26:41.504Z,36.41
2023-07-08T10:29:20.044Z,36.37
2023-07-08T10:32:05.319Z,36.18
2023-07-08T10:34:38.072Z,36.28
2023-07-08T10:37:10.177Z,36.24
2023-07-08T10:39:39.409Z,36.12
2023-07-08T10:42:26.582Z,36.00
2023-07-08T10:45:14.347Z,35.88
2023-07-08T10:47:50.772Z,35.57
2023-07-08T10:50:26.862Z,35.63
2023-07-08T10:52:53.064Z,35.64
2023-07-08T10:55:38.118Z,35.41
2023-07-08T10:58:14.307Z,35.34
2023-07-08T11:03:25.637Z,35.24
2023-07-08T11:06:10.630Z,34.97
2023-07-08T11:08:44.458Z,35.13
2023-07-08T11:11:21.081Z,35.28
2023-07-08T11:13:51.318Z,34.91
2023-07-08T11:16:22.912Z,34.91
2023-07-08T11:18:51.896Z,34.93
2023-07-08T11:21:32.082Z,34.92
2023-07-08T11:24:06.533Z,34.88
2023-07-08T11:26:37.290Z,34.86
2023-07-08T11:29:04.191Z,34.79
2023-07-08T11:31:33.041Z,34.69
2023-07-08T11:33:59.913Z,34.55
2023-07-08T11:36:27.376Z,34.42
2023-07-08T11:38:54.618Z,34.34
2023-07-08T11:41:22.875Z,34.29
2023-07-08T11:43:53.261Z,34.27
2023-07-08T11:46:21.715Z,34.30
2023-07-08T11:48:49.722Z,34.17
2023-07-08T11:51:19.120Z,34.25
2023-07-08T11:53:50.099Z,34.03
2023-07-08T11:56:16.260Z,33.99
2023-07-08T11:59:01.404Z,34.01
2023-07-08T12:01:29.582Z,33.54
2023-07-08T12:04:16.113Z,33.46
2023-07-08T12:06:43.410Z,33.55
2023-07-08T12:09:21.942Z,34.02
2023-07-08T12:11:54.384Z,33.68
2023-07-08T12:14:20.921Z,33.50
2023-07-08T12:16:47.326Z,33.43
2023-07-08T12:19:15.831Z,33.52
2023-07-08T12:21:42.317Z,33.62
2023-07-08T12:24:11.540Z,33.52
2023-07-08T12:26:37.774Z,33.33
2023-07-08T12:29:03.952Z,33.29
2023-07-08T12:31:32.306Z,33.05
2023-07-08T12:33:59.436Z,33.11
2023-07-08T12:36:27.320Z,33.20
2023-07-08T12:38:55.084Z,33.25
2023-07-08T12:41:22.780Z,33.32
2023-07-08T12:43:49.456Z,33.18
2023-07-08T12:46:17.359Z,32.76
2023-07-08T12:48:43.604Z,32.99
2023-07-08T12:51:12.126Z,32.95
2023-07-08T12:53:38.399Z,32.97
2023-07-08T12:56:05.491Z,32.74
2023-07-08T12:58:34.126Z,32.75
2023-07-08T13:01:01.974Z,32.57
2023-07-08T13:03:30.060Z,32.53
2023-07-08T13:05:57.507Z,32.56
2023-07-08T13:08:25.294Z,32.82
2023-07-08T13:10:53.230Z,32.72
2023-07-08T13:13:25.596Z,32.56
2023-07-08T13:15:52.175Z,32.53
2023-07-08T13:18:36.325Z,32.51
2023-07-08T13:21:04.106Z,32.44
2023-07-08T13:23:30.785Z,32.54
2023-07-08T13:25:57.410Z,32.50
2023-07-08T13:28:28.256Z,32.33
2023-07-08T13:30:56.059Z,32.30
2023-07-08T13:33:22.946Z,32.28
2023-07-08T13:35:50.860Z,32.23
2023-07-08T13:38:18.858Z,32.22
2023-07-08T13:40:46.802Z,32.21
2023-07-08T13:43:13.106Z,32.30
2023-07-08T13:45:48.173Z,32.49
2023-07-08T13:48:27.660Z,32.09
2023-07-08T13:51:06.252Z,31.99
2023-07-08T13:53:46.724Z,31.98
2023-07-08T13:56:20.983Z,32.13
2023-07-08T13:58:49.300Z,32.05
2023-07-08T14:01:18.687Z,32.04
2023-07-08T14:03:47.436Z,32.00
2023-07-08T14:06:14.551Z,32.08
2023-07-08T14:08:40.669Z,32.07
2023-07-08T14:11:07.070Z,31.94
2023-07-08T14:13:34.156Z,31.90
2023-07-08T14:16:01.052Z,31.88
2023-07-08T14:18:27.373Z,31.91
2023-07-08T14:20:54.392Z,31.91
2023-07-08T14:23:21.251Z,32.01
2023-07-08T14:25:47.531Z,31.73
2023-07-08T14:28:13.654Z,31.82
2023-07-08T14:30:42.494Z,31.63
2023-07-08T14:33:12.338Z,31.81
2023-07-08T14:35:39.252Z,31.68
2023-07-08T14:38:10.692Z,31.52
2023-07-08T14:40:38.285Z,31.66
2023-07-08T14:43:16.862Z,31.46
2023-07-08T14:45:47.659Z,31.67
2023-07-08T14:48:14.045Z,31.49
2023-07-08T14:50:40.908Z,31.46
2023-07-08T14:53:07.381Z,31.48
2023-07-08T14:55:34.480Z,31.48
2023-07-08T14:58:01.178Z,31.27
2023-07-08T15:00:27.781Z,31.29
2023-07-08T15:02:54.331Z,31.42
2023-07-08T15:05:25.554Z,31.39
2023-07-08T15:07:52.738Z,31.41
2023-07-08T15:10:20.312Z,31.32
2023-07-08T15:12:48.021Z,31.38
2023-07-08T15:15:15.884Z,31.27
2023-07-08T15:17:42.231Z,31.40
2023-07-08T15:20:13.695Z,31.27
2023-07-08T15:22:39.879Z,31.33
2023-07-08T15:25:06.802Z,31.28
2023-07-08T15:27:33.725Z,31.24
2023-07-08T15:30:00.182Z,31.29
2023-07-08T15:32:39.907Z,31.38
2023-07-08T15:35:14.788Z,31.43
2023-07-08T15:37:41.843Z,31.31
2023-07-08T15:40:09.301Z,31.39
2023-07-08T15:42:35.913Z,31.33
2023-07-08T15:45:09.348Z,31.33
2023-07-08T15:47:35.688Z,31.38
2023-07-08T15:50:01.992Z,31.31
2023-07-08T15:52:28.359Z,31.38
2023-07-08T15:54:54.654Z,31.37
2023-07-08T15:57:20.997Z,31.51
2023-07-08T15:59:47.634Z,31.63
2023-07-08T16:02:23.812Z,31.50
2023-07-08T16:04:52.258Z,31.46
2023-07-08T16:07:18.485Z,31.50
2023-07-08T16:09:44.561Z,31.59
2023-07-08T16:12:12.509Z,31.52
2023-07-08T16:14:38.846Z,31.60
2023-07-08T16:17:09.743Z,31.59
2023-07-08T16:19:36.599Z,31.47
2023-07-08T16:22:03.340Z,31.72
2023-07-08T16:24:29.715Z,31.85
2023-07-08T16:26:56.020Z,31.93
2023-07-08T16:29:22.999Z,31.98
2023-07-08T16:31:49.381Z,32.05
2023-07-08T16:34:15.715Z,32.02
2023-07-08T16:36:42.272Z,32.18
2023-07-08T16:39:08.424Z,32.15
2023-07-08T16:41:38.979Z,32.15
2023-07-08T16:44:15.943Z,32.21
2023-07-08T16:46:42.653Z,32.22
2023-07-08T16:49:09.264Z,32.25
2023-07-08T16:51:35.826Z,32.56
2023-07-08T16:54:09.609Z,32.38
2023-07-08T16:56:36.442Z,32.58
2023-07-08T16:59:03.700Z,32.57
2023-07-08T17:01:30.624Z,32.55
2023-07-08T17:03:57.971Z,32.51
2023-07-08T17:06:25.036Z,32.80
2023-07-08T17:08:51.359Z,32.86
2023-07-08T17:11:18.026Z,32.76
2023-07-08T17:13:45.433Z,32.79
2023-07-08T17:16:17.189Z,32.88
2023-07-08T17:18:47.222Z,32.97
2023-07-08T17:21:15.024Z,32.93
2023-07-08T17:23:41.352Z,32.96
2023-07-08T17:26:07.752Z,33.01
2023-07-08T17:28:34.117Z,33.15
2023-07-08T17:31:01.313Z,33.21
2023-07-08T17:33:28.393Z,33.24
2023-07-08T17:35:55.227Z,33.33
2023-07-08T17:38:22.822Z,33.26
2023-07-08T17:40:49.150Z,33.43
2023-07-08T17:43:15.508Z,33.56
2023-07-08T17:45:44.819Z,33.40
2023-07-08T17:48:24.415Z,33.45
2023-07-08T17:50:51.581Z,33.47
2023-07-08T17:53:17.877Z,33.53
2023-07-08T17:55:44.568Z,33.63
2023-07-08T17:58:13.071Z,33.64
2023-07-08T18:00:39.573Z,33.75
2023-07-08T18:03:06.139Z,33.70
2023-07-08T18:05:32.849Z,33.67
2023-07-08T18:07:59.996Z,33.85
2023-07-08T18:10:27.382Z,33.82
2023-07-08T18:12:53.888Z,34.04
2023-07-08T18:15:22.328Z,33.98
2023-07-08T18:17:49.443Z,33.90
2023-07-08T18:20:15.970Z,34.20
2023-07-08T18:22:46.146Z,33.95
2023-07-08T18:25:13.899Z,34.03
2023-07-08T18:27:40.273Z,34.07
2023-07-08T18:30:06.756Z,34.25
2023-07-08T18:32:35.504Z,34.21
2023-07-08T18:35:01.811Z,34.41
2023-07-08T18:37:28.520Z,34.46
2023-07-08T18:39:54.781Z,34.56
2023-07-08T18:42:21.280Z,34.47
2023-07-08T18:44:47.590Z,34.59
2023-07-08T18:47:14.108Z,34.78
2023-07-08T18:49:40.754Z,34.68
2023-07-08T18:52:08.991Z,34.72
2023-07-08T18:54:35.291Z,34.73
2023-07-08T18:57:01.675Z,34.95
2023-07-08T18:59:27.912Z,34.97
2023-07-08T19:01:54.208Z,34.97
2023-07-08T19:04:25.157Z,35.06
2023-07-08T19:06:53.511Z,35.12
2023-07-08T19:09:19.845Z,35.27
2023-07-08T19:11:49.263Z,35.42
2023-07-08T19:14:16.800Z,35.24
2023-07-08T19:16:43.927Z,35.40
2023-07-08T19:19:14.285Z,35.42
2023-07-08T19:21:40.868Z,35.40
2023-07-08T19:24:13.615Z,35.55
2023-07-08T19:26:42.151Z,35.72
2023-07-08T19:29:09.298Z,35.71
2023-07-08T19:31:35.804Z,35.75
2023-07-08T19:34:04.990Z,35.69
2023-07-08T19:36:34.831Z,35.84
2023-07-08T19:39:01.616Z,35.87
2023-07-08T19:41:29.051Z,36.08
2023-07-08T19:43:56.742Z,36.00
2023-07-08T19:46:23.308Z,36.03
2023-07-08T19:48:50.322Z,36.12
2023-07-08T19:51:17.125Z,36.18
2023-07-08T19:53:43.695Z,36.22
2023-07-08T19:56:12.341Z,36.46
2023-07-08T19:58:39.458Z,36.67
2023-07-08T20:01:08.276Z,36.43
2023-07-08T20:03:35.318Z,36.55
2023-07-08T20:06:10.280Z,36.44
2023-07-08T20:08:37.841Z,36.51
2023-07-08T20:11:04.414Z,36.77
2023-07-08T20:13:31.791Z,36.70
2023-07-08T20:16:02.544Z,36.75
2023-07-08T20:18:32.212Z,36.92
2023-07-08T20:20:59.797Z,36.87
2023-07-08T20:23:29.063Z,36.94
2023-07-08T20:25:56.340Z,36.91
2023-07-08T20:28:37.625Z,36.96
2023-07-08T20:31:11.751Z,37.12
2023-07-08T20:33:39.669Z,37.15
2023-07-08T20:36:10.158Z,37.08
2023-07-08T20:38:36.498Z,37.23
2023-07-08T20:41:03.114Z,37.29
2023-07-08T20:43:29.660Z,37.34
2023-07-08T20:45:56.533Z,37.45
2023-07-08T20:48:24.642Z,37.40
2023-07-08T20:50:51.529Z,37.51
2023-07-08T20:53:18.640Z,37.53
2023-07-08T20:55:45.366Z,37.67
2023-07-08T20:58:16.160Z,37.69
2023-07-08T21:00:45.980Z,37.79
2023-07-08T21:03:14.303Z,37.90
2023-07-08T21:05:42.844Z,37.97
2023-07-08T21:08:18.691Z,37.99
2023-07-08T21:10:45.120Z,37.92
2023-07-08T21:13:11.456Z,37.95
2023-07-08T21:15:37.679Z,38.07
2023-07-08T21:18:04.481Z,38.02
2023-07-08T21:20:31.147Z,38.15
2023-07-08T21:22:57.567Z,38.29
2023-07-08T21:25:25.550Z,38.19
2023-07-08T21:27:52.261Z,38.27
2023-07-08T21:30:20.263Z,38.43
2023-07-08T21:32:47.806Z,38.39
2023-07-08T21:35:15.094Z,38.42
2023-07-08T21:37:51.693Z,38.51
2023-07-08T21:40:23.978Z,38.58
2023-07-08T21:42:50.337Z,38.74
2023-07-08T21:45:36.840Z,38.66
2023-07-08T21:48:03.818Z,38.76
2023-07-08T21:50:36.994Z,38.74
2023-07-08T21:53:03.503Z,38.81
2023-07-08T21:55:30.081Z,38.75
2023-07-08T21:57:56.330Z,38.86
2023-07-08T22:00:22.688Z,38.94
2023-07-08T22:03:10.481Z,38.99
2023-07-08T22:05:36.829Z,39.05
2023-07-08T22:08:04.399Z,39.10
2023-07-08T22:10:30.927Z,39.11
2023-07-08T22:12:57.373Z,39.14
2023-07-08T22:15:25.027Z,39.19
2023-07-08T22:17:55.508Z,39.34
2023-07-08T22:20:24.367Z,39.28
2023-07-08T22:22:51.110Z,39.39
2023-07-08T22:25:18.870Z,39.43
2023-07-08T22:27:45.450Z,39.40
2023-07-08T22:30:13.932Z,39.46
2023-07-08T22:32:40.678Z,39.60
2023-07-08T22:35:09.043Z,39.44
2023-07-08T22:37:35.306Z,39.67
2023-07-08T22:40:01.497Z,39.62
2023-07-08T22:42:27.985Z,39.79
2023-07-08T22:44:54.943Z,39.83
2023-07-08T22:47:23.830Z,39.72
2023-07-08T22:49:51.155Z,39.88
2023-07-08T22:52:22.780Z,39.84
2023-07-08T22:54:49.043Z,39.85
2023-07-08T22:57:15.323Z,39.88
2023-07-08T22:59:47.213Z,40.08
2023-07-08T23:02:13.546Z,40.04
2023-07-08T23:04:44.523Z,40.17
2023-07-08T23:07:11.900Z,40.22
2023-07-08T23:09:38.169Z,40.38
2023-07-08T23:12:06.962Z,40.36
2023-07-08T23:14:33.397Z,40.18
2023-07-08T23:16:59.562Z,40.34
2023-07-08T23:19:25.798Z,40.44
2023-07-08T23:21:52.103Z,40.57
2023-07-08T23:24:18.328Z,40.54
2023-07-08T23:26:45.306Z,40.44
2023-07-08T23:29:21.118Z,40.74
2023-07-08T23:31:48.059Z,40.80
2023-07-08T23:34:14.459Z,40.70
2023-07-08T23:36:49.576Z,40.73
2023-07-08T23:39:24.114Z,40.86
2023-07-08T23:41:51.266Z,40.81
2023-07-08T23:44:18.242Z,40.84
2023-07-08T23:46:45.513Z,41.04
2023-07-08T23:49:20.986Z,41.09
2023-07-08T23:51:47.322Z,41.07
2023-07-08T23:54:24.040Z,40.94
2023-07-08T23:56:51.433Z,41.05
2023-07-08T23:59:17.959Z,41.07
